Aeroporto :
LOGIN :

Iscrizione | Disclaimer

   EN    FR    IT 

 










Sommario :    VFR   VFR Marginale   IFR   IFR Intensivo   IFR Molto Intensivo
Visibilità : 
Base nubi : 
>= 8 km
>= 3000ft
5 / 8 km
1000 / 3000 ft
1500m / 5 km
500 / 1000 ft
800 / 1500m
200 / 500 ft
< 800m
< 200 ft
Simboli :   Temporali  Nebbia  Neve Forte  Precipitazioni Forti  Vento > 20 kt
SIGMETs :   Varie  Temporali  Ghiacco  Turbolenza  Onda orograficha  Ceneri Vulcaniche






- Altitudine del aeroporto : 93 ft
- Codice IATA : XRY


LEJR - Jerez

ULTIMO METAR :
  • 242300Z AUTO 05003KT 350V070 9000 NCD 08/06 Q1025

METARs OBSOLETI :
  • 242230Z AUTO 09003KT CAVOK 08/05 Q1025
  • 242200Z 12003KT CAVOK 09/05 Q1025
  • 242130Z VRB02KT CAVOK 11/08 Q1025
  • 242100Z 35003KT CAVOK 10/07 Q1025
  • 242030Z 00000KT CAVOK 13/09 Q1025

TAF TAF LEJR
Valido dal 24 a 18 ore il 25 a 18 ore UTC


241700Z 2418/2518 27005KT CAVOK TX20/2514Z TN04/2506Z
PROB40
TEMPO 2502/2509 3000 BR
PROB30
TEMPO 2506/2508 0500 FG VV001



MetMap, La meteo Aeronautica in un colpo d'occhio ! - Copyright ORBIFLY Dicembre 2007 - Disclaimer

ORBIFLY MET'MAP TEAM :

Programmazione e sviluppo : Alexandra Zaïnal
Concezione : Baudouin d'Aumeries
Aiuto per la programmazione : Marc-Olivier Méhu
Supporto tecnico e logistico : Manuel Goepfert
Aiuto per la traduzione : Arnaldo La Scala

Contatto : metmap@orbifly.com




FONTI E CREDITI :

   NOAA